Current Conditions
Mostly Clear
Conditions



Pressure
1014.9 (hPa) - 29.97 (inHG)
Visibility

9.7 (km) - 6.0 (miles)
Temperature
15  °C
Temperature
12  °C
Dewpoint
82  %
 Humidity
Wind Speed
10  km/h
5  kts
6  mph
2.7  m/s
Wind Direction
N
45°
E
90°
135°
S
180°
225°
W
270°
315°
 290°

West North
West
Airport Data
YMML
Melbourne International Airport
Metar :YMML 291630Z 29005KT CAVOK 15/12 Q1015
Fri 1st March 03:30 am
Raw Metar Info
Raw METAR is the most common format in the world for the transmission of observational weather data. It is highly standardized through the International Civil Aviation Organization (ICAO), which allows it to be understood throughout most of the world.
API Info
Data Provided by
https://www.checkwx.com/weather/YMML

Aviation Weather providing METAR, TAF, AIRMET, SIGMET and OUTLOOK Weather Reports
© Info
CSS/SVG/PHP scripts were developed by weather34 for use in the weather34 template © 2015-2024

Guide Info provided by Metar-Wikipedia